Terminal Aerodrome Forecast
Issued by NWS Sterling, VA

Current Version | Previous Version | Graphics & Text | Print | Product List | Glossary On
Versions: 1 2 3 4 5 6 7 8 9 10 11 12 13 14 15 16 17 18 19 20 21 22 23 24
000
FTUS41 KLWX 301456 AAB
TAFDCA
TAF AMD
KDCA 301456Z 3015/3112 18009KT P6SM FEW015 SCT150
     FM301700 19010KT P6SM SCT050
     FM310500 18007KT P6SM SCT250=

USA.gov is the U.S. government's official web portal to all federal, state and local government web resources and services.